sensor_id;sensor_type;location;lat;lon;timestamp;temperature;humidity
12481;DHT22;6305;48.398;11.762;2022-08-01T00:00:28;19.50;99.90
12481;DHT22;6305;48.398;11.762;2022-08-01T00:02:55;19.50;99.90
12481;DHT22;6305;48.398;11.762;2022-08-01T00:05:22;19.50;99.90
12481;DHT22;6305;48.398;11.762;2022-08-01T00:07:51;19.40;99.90
12481;DHT22;6305;48.398;11.762;2022-08-01T00:10:18;19.30;99.90
12481;DHT22;6305;48.398;11.762;2022-08-01T00:12:45;19.30;99.90
12481;DHT22;6305;48.398;11.762;2022-08-01T00:15:14;19.20;99.90
12481;DHT22;6305;48.398;11.762;2022-08-01T00:17:42;19.10;99.90
12481;DHT22;6305;48.398;11.762;2022-08-01T00:20:12;19.00;99.90
12481;DHT22;6305;48.398;11.762;2022-08-01T00:22:39;19.00;99.90
12481;DHT22;6305;48.398;11.762;2022-08-01T00:25:07;19.00;99.90
12481;DHT22;6305;48.398;11.762;2022-08-01T00:27:34;18.90;99.90
12481;DHT22;6305;48.398;11.762;2022-08-01T00:30:01;18.90;99.90
12481;DHT22;6305;48.398;11.762;2022-08-01T00:32:30;18.80;99.90
12481;DHT22;6305;48.398;11.762;2022-08-01T00:34:56;18.70;99.90
12481;DHT22;6305;48.398;11.762;2022-08-01T00:37:23;18.70;99.90
12481;DHT22;6305;48.398;11.762;2022-08-01T00:39:50;18.60;99.90
12481;DHT22;6305;48.398;11.762;2022-08-01T00:42:18;18.50;99.90
12481;DHT22;6305;48.398;11.762;2022-08-01T00:44:45;18.50;99.90
12481;DHT22;6305;48.398;11.762;2022-08-01T00:47:12;18.50;99.90
12481;DHT22;6305;48.398;11.762;2022-08-01T00:49:38;18.40;99.90
12481;DHT22;6305;48.398;11.762;2022-08-01T00:52:05;18.40;99.90
12481;DHT22;6305;48.398;11.762;2022-08-01T00:54:33;18.40;99.90
12481;DHT22;6305;48.398;11.762;2022-08-01T00:56:59;18.40;99.90
12481;DHT22;6305;48.398;11.762;2022-08-01T00:59:28;18.30;99.90
12481;DHT22;6305;48.398;11.762;2022-08-01T01:01:55;18.30;99.90
12481;DHT22;6305;48.398;11.762;2022-08-01T01:04:22;18.30;99.90
12481;DHT22;6305;48.398;11.762;2022-08-01T01:06:57;18.20;99.90
12481;DHT22;6305;48.398;11.762;2022-08-01T01:09:33;18.20;99.90
12481;DHT22;6305;48.398;11.762;2022-08-01T01:12:13;18.10;99.90
12481;DHT22;6305;48.398;11.762;2022-08-01T01:14:48;18.10;99.90
12481;DHT22;6305;48.398;11.762;2022-08-01T01:17:21;18.00;99.90
12481;DHT22;6305;48.398;11.762;2022-08-01T01:19:54;18.00;99.90
12481;DHT22;6305;48.398;11.762;2022-08-01T01:22:29;17.90;99.90
12481;DHT22;6305;48.398;11.762;2022-08-01T01:25:26;17.80;99.90
12481;DHT22;6305;48.398;11.762;2022-08-01T01:28:08;17.80;99.90
12481;DHT22;6305;48.398;11.762;2022-08-01T01:30:38;17.70;99.90
12481;DHT22;6305;48.398;11.762;2022-08-01T01:33:08;17.70;99.90
12481;DHT22;6305;48.398;11.762;2022-08-01T01:35:40;17.70;99.90
12481;DHT22;6305;48.398;11.762;2022-08-01T01:38:10;17.60;99.90
12481;DHT22;6305;48.398;11.762;2022-08-01T01:40:39;17.50;99.90
12481;DHT22;6305;48.398;11.762;2022-08-01T01:43:10;17.50;99.90
12481;DHT22;6305;48.398;11.762;2022-08-01T01:45:39;17.50;99.90
12481;DHT22;6305;48.398;11.762;2022-08-01T01:48:07;17.40;99.90
12481;DHT22;6305;48.398;11.762;2022-08-01T01:50:36;17.40;99.90
12481;DHT22;6305;48.398;11.762;2022-08-01T01:53:04;17.50;99.90
12481;DHT22;6305;48.398;11.762;2022-08-01T01:55:32;17.60;99.90
12481;DHT22;6305;48.398;11.762;2022-08-01T01:58:01;17.50;99.90
12481;DHT22;6305;48.398;11.762;2022-08-01T02:00:29;17.60;99.90
12481;DHT22;6305;48.398;11.762;2022-08-01T02:02:59;17.60;99.90
12481;DHT22;6305;48.398;11.762;2022-08-01T02:05:28;17.60;99.90
12481;DHT22;6305;48.398;11.762;2022-08-01T02:07:55;17.60;99.90
12481;DHT22;6305;48.398;11.762;2022-08-01T02:10:24;17.60;99.90
12481;DHT22;6305;48.398;11.762;2022-08-01T02:12:52;17.60;99.90
12481;DHT22;6305;48.398;11.762;2022-08-01T02:15:19;17.60;99.90
12481;DHT22;6305;48.398;11.762;2022-08-01T02:17:48;17.60;99.90
12481;DHT22;6305;48.398;11.762;2022-08-01T02:20:17;17.50;99.90
12481;DHT22;6305;48.398;11.762;2022-08-01T02:22:47;17.50;99.90
12481;DHT22;6305;48.398;11.762;2022-08-01T02:25:20;17.50;99.90
12481;DHT22;6305;48.398;11.762;2022-08-01T02:27:54;17.40;99.90
12481;DHT22;6305;48.398;11.762;2022-08-01T02:30:23;17.40;99.90
12481;DHT22;6305;48.398;11.762;2022-08-01T02:32:52;17.30;99.90
12481;DHT22;6305;48.398;11.762;2022-08-01T02:35:26;17.30;99.90
12481;DHT22;6305;48.398;11.762;2022-08-01T02:37:54;17.30;99.90
12481;DHT22;6305;48.398;11.762;2022-08-01T02:40:21;17.20;99.90
12481;DHT22;6305;48.398;11.762;2022-08-01T02:42:50;17.20;99.90
12481;DHT22;6305;48.398;11.762;2022-08-01T02:45:18;17.20;99.90
12481;DHT22;6305;48.398;11.762;2022-08-01T02:47:46;17.10;99.90
12481;DHT22;6305;48.398;11.762;2022-08-01T02:50:14;17.10;99.90
12481;DHT22;6305;48.398;11.762;2022-08-01T02:52:47;17.10;99.90
12481;DHT22;6305;48.398;11.762;2022-08-01T02:55:17;17.00;99.90
12481;DHT22;6305;48.398;11.762;2022-08-01T02:57:45;17.10;99.90
12481;DHT22;6305;48.398;11.762;2022-08-01T03:00:13;17.10;99.90
12481;DHT22;6305;48.398;11.762;2022-08-01T03:02:41;17.10;99.90
12481;DHT22;6305;48.398;11.762;2022-08-01T03:05:10;17.10;99.90
12481;DHT22;6305;48.398;11.762;2022-08-01T03:07:38;17.20;99.90
12481;DHT22;6305;48.398;11.762;2022-08-01T03:10:08;17.20;99.90
12481;DHT22;6305;48.398;11.762;2022-08-01T03:12:36;17.20;99.90
12481;DHT22;6305;48.398;11.762;2022-08-01T03:15:05;17.20;99.90
12481;DHT22;6305;48.398;11.762;2022-08-01T03:17:34;17.20;99.90
12481;DHT22;6305;48.398;11.762;2022-08-01T03:20:03;17.20;99.90
12481;DHT22;6305;48.398;11.762;2022-08-01T03:22:32;17.20;99.90
12481;DHT22;6305;48.398;11.762;2022-08-01T03:25:01;17.20;99.90
12481;DHT22;6305;48.398;11.762;2022-08-01T03:27:30;17.20;99.90
12481;DHT22;6305;48.398;11.762;2022-08-01T03:29:58;17.10;99.90
12481;DHT22;6305;48.398;11.762;2022-08-01T03:32:27;17.10;99.90
12481;DHT22;6305;48.398;11.762;2022-08-01T03:34:54;17.00;99.90
12481;DHT22;6305;48.398;11.762;2022-08-01T03:37:24;16.90;99.90
12481;DHT22;6305;48.398;11.762;2022-08-01T03:39:55;16.90;99.90
12481;DHT22;6305;48.398;11.762;2022-08-01T03:42:28;16.80;99.90
12481;DHT22;6305;48.398;11.762;2022-08-01T03:45:02;16.70;99.90
12481;DHT22;6305;48.398;11.762;2022-08-01T03:47:32;16.70;99.90
12481;DHT22;6305;48.398;11.762;2022-08-01T03:50:02;16.70;99.90
12481;DHT22;6305;48.398;11.762;2022-08-01T03:52:30;16.70;99.90
12481;DHT22;6305;48.398;11.762;2022-08-01T03:54:59;16.80;99.90
12481;DHT22;6305;48.398;11.762;2022-08-01T03:57:28;16.80;99.90
12481;DHT22;6305;48.398;11.762;2022-08-01T03:59:56;16.90;99.90
12481;DHT22;6305;48.398;11.762;2022-08-01T04:02:26;17.00;99.90
12481;DHT22;6305;48.398;11.762;2022-08-01T04:04:53;17.10;99.90
12481;DHT22;6305;48.398;11.762;2022-08-01T04:07:25;17.20;99.90
12481;DHT22;6305;48.398;11.762;2022-08-01T04:09:52;17.30;99.90
12481;DHT22;6305;48.398;11.762;2022-08-01T04:12:19;17.40;99.90
12481;DHT22;6305;48.398;11.762;2022-08-01T04:14:46;17.50;99.90
12481;DHT22;6305;48.398;11.762;2022-08-01T04:17:14;17.60;99.90
12481;DHT22;6305;48.398;11.762;2022-08-01T04:19:42;17.70;99.90
12481;DHT22;6305;48.398;11.762;2022-08-01T04:22:10;17.80;99.90
12481;DHT22;6305;48.398;11.762;2022-08-01T04:24:37;17.80;99.90
12481;DHT22;6305;48.398;11.762;2022-08-01T04:27:06;17.90;99.90
12481;DHT22;6305;48.398;11.762;2022-08-01T04:29:36;18.10;99.90
12481;DHT22;6305;48.398;11.762;2022-08-01T04:32:06;18.20;99.90
12481;DHT22;6305;48.398;11.762;2022-08-01T04:34:33;18.30;99.90
12481;DHT22;6305;48.398;11.762;2022-08-01T04:37:02;18.30;99.90
12481;DHT22;6305;48.398;11.762;2022-08-01T04:39:32;18.40;99.90
12481;DHT22;6305;48.398;11.762;2022-08-01T04:42:04;18.40;99.90
12481;DHT22;6305;48.398;11.762;2022-08-01T04:44:31;18.40;99.90
12481;DHT22;6305;48.398;11.762;2022-08-01T04:46:59;18.50;99.90
12481;DHT22;6305;48.398;11.762;2022-08-01T04:49:26;18.60;99.90
12481;DHT22;6305;48.398;11.762;2022-08-01T04:51:54;18.80;99.90
12481;DHT22;6305;48.398;11.762;2022-08-01T04:54:24;18.90;99.90
12481;DHT22;6305;48.398;11.762;2022-08-01T04:56:52;19.00;99.90
12481;DHT22;6305;48.398;11.762;2022-08-01T04:59:19;19.00;99.90
12481;DHT22;6305;48.398;11.762;2022-08-01T05:02:04;19.00;99.90
12481;DHT22;6305;48.398;11.762;2022-08-01T05:04:30;19.00;99.90
12481;DHT22;6305;48.398;11.762;2022-08-01T05:06:57;18.90;99.90
12481;DHT22;6305;48.398;11.762;2022-08-01T05:09:25;18.90;99.90
12481;DHT22;6305;48.398;11.762;2022-08-01T05:11:52;18.90;99.90
12481;DHT22;6305;48.398;11.762;2022-08-01T05:14:19;18.90;99.90
12481;DHT22;6305;48.398;11.762;2022-08-01T05:16:46;19.00;99.90
12481;DHT22;6305;48.398;11.762;2022-08-01T05:19:13;19.20;99.90
12481;DHT22;6305;48.398;11.762;2022-08-01T05:21:39;19.50;99.90
12481;DHT22;6305;48.398;11.762;2022-08-01T05:24:06;19.90;99.90
12481;DHT22;6305;48.398;11.762;2022-08-01T05:26:34;20.30;99.90
12481;DHT22;6305;48.398;11.762;2022-08-01T05:29:01;20.60;99.90
12481;DHT22;6305;48.398;11.762;2022-08-01T05:31:28;20.60;99.90
12481;DHT22;6305;48.398;11.762;2022-08-01T05:33:55;20.70;99.90
12481;DHT22;6305;48.398;11.762;2022-08-01T05:36:22;20.60;99.90
12481;DHT22;6305;48.398;11.762;2022-08-01T05:38:48;20.70;99.90
12481;DHT22;6305;48.398;11.762;2022-08-01T05:41:15;20.70;99.90
12481;DHT22;6305;48.398;11.762;2022-08-01T05:43:43;20.80;99.90
12481;DHT22;6305;48.398;11.762;2022-08-01T05:46:10;20.90;99.90
12481;DHT22;6305;48.398;11.762;2022-08-01T05:48:36;20.80;99.90
12481;DHT22;6305;48.398;11.762;2022-08-01T05:51:03;20.80;99.90
12481;DHT22;6305;48.398;11.762;2022-08-01T05:53:30;20.90;99.90
12481;DHT22;6305;48.398;11.762;2022-08-01T05:55:59;20.90;99.90
12481;DHT22;6305;48.398;11.762;2022-08-01T05:58:26;21.00;99.90
12481;DHT22;6305;48.398;11.762;2022-08-01T06:00:54;21.00;99.90
12481;DHT22;6305;48.398;11.762;2022-08-01T06:03:21;21.10;99.90
12481;DHT22;6305;48.398;11.762;2022-08-01T06:05:47;21.00;99.90
12481;DHT22;6305;48.398;11.762;2022-08-01T06:08:14;20.90;99.90
12481;DHT22;6305;48.398;11.762;2022-08-01T06:10:41;20.70;99.90
12481;DHT22;6305;48.398;11.762;2022-08-01T06:13:07;20.40;99.90
12481;DHT22;6305;48.398;11.762;2022-08-01T06:15:34;20.20;99.90
12481;DHT22;6305;48.398;11.762;2022-08-01T06:18:02;20.10;99.90
12481;DHT22;6305;48.398;11.762;2022-08-01T06:20:30;19.90;99.90
12481;DHT22;6305;48.398;11.762;2022-08-01T06:22:57;19.90;99.90
12481;DHT22;6305;48.398;11.762;2022-08-01T06:25:24;20.10;99.90
12481;DHT22;6305;48.398;11.762;2022-08-01T06:27:51;20.30;99.90
12481;DHT22;6305;48.398;11.762;2022-08-01T06:30:18;20.50;99.90
12481;DHT22;6305;48.398;11.762;2022-08-01T06:32:45;20.70;99.90
12481;DHT22;6305;48.398;11.762;2022-08-01T06:35:14;21.20;99.90
12481;DHT22;6305;48.398;11.762;2022-08-01T06:37:41;21.60;99.90
12481;DHT22;6305;48.398;11.762;2022-08-01T06:40:10;21.90;99.90
12481;DHT22;6305;48.398;11.762;2022-08-01T06:42:39;22.60;99.90
12481;DHT22;6305;48.398;11.762;2022-08-01T06:45:07;24.30;99.90
12481;DHT22;6305;48.398;11.762;2022-08-01T06:47:34;26.30;96.50
12481;DHT22;6305;48.398;11.762;2022-08-01T06:50:01;28.20;90.80
12481;DHT22;6305;48.398;11.762;2022-08-01T06:52:29;28.90;79.80
12481;DHT22;6305;48.398;11.762;2022-08-01T06:54:55;29.80;72.30
12481;DHT22;6305;48.398;11.762;2022-08-01T06:57:22;31.20;65.50
12481;DHT22;6305;48.398;11.762;2022-08-01T06:59:49;32.20;59.00
12481;DHT22;6305;48.398;11.762;2022-08-01T07:02:15;33.40;55.20
12481;DHT22;6305;48.398;11.762;2022-08-01T07:04:42;34.70;51.90
12481;DHT22;6305;48.398;11.762;2022-08-01T07:07:09;35.50;48.10
12481;DHT22;6305;48.398;11.762;2022-08-01T07:09:37;36.30;45.60
12481;DHT22;6305;48.398;11.762;2022-08-01T07:12:06;36.10;45.40
12481;DHT22;6305;48.398;11.762;2022-08-01T07:14:33;36.80;44.30
12481;DHT22;6305;48.398;11.762;2022-08-01T07:16:59;37.40;42.50
12481;DHT22;6305;48.398;11.762;2022-08-01T07:19:26;37.30;42.00
12481;DHT22;6305;48.398;11.762;2022-08-01T07:21:53;37.70;42.10
12481;DHT22;6305;48.398;11.762;2022-08-01T07:24:20;38.90;41.00
12481;DHT22;6305;48.398;11.762;2022-08-01T07:26:49;39.90;39.20
12481;DHT22;6305;48.398;11.762;2022-08-01T07:29:15;39.70;38.00
12481;DHT22;6305;48.398;11.762;2022-08-01T07:31:42;39.30;38.40
12481;DHT22;6305;48.398;11.762;2022-08-01T07:34:09;39.70;38.00
12481;DHT22;6305;48.398;11.762;2022-08-01T07:36:36;39.40;37.40
12481;DHT22;6305;48.398;11.762;2022-08-01T07:39:02;38.90;38.20
12481;DHT22;6305;48.398;11.762;2022-08-01T07:41:29;39.00;38.40
12481;DHT22;6305;48.398;11.762;2022-08-01T07:43:57;39.40;37.90
12481;DHT22;6305;48.398;11.762;2022-08-01T07:46:24;39.70;37.20
12481;DHT22;6305;48.398;11.762;2022-08-01T07:48:50;39.40;37.00
12481;DHT22;6305;48.398;11.762;2022-08-01T07:51:17;38.90;37.70
12481;DHT22;6305;48.398;11.762;2022-08-01T07:53:44;39.30;38.00
12481;DHT22;6305;48.398;11.762;2022-08-01T07:56:11;39.70;37.20
12481;DHT22;6305;48.398;11.762;2022-08-01T07:58:37;39.10;37.10
12481;DHT22;6305;48.398;11.762;2022-08-01T08:01:06;38.20;39.10
12481;DHT22;6305;48.398;11.762;2022-08-01T08:03:32;39.00;38.30
12481;DHT22;6305;48.398;11.762;2022-08-01T08:05:59;39.50;37.40
12481;DHT22;6305;48.398;11.762;2022-08-01T08:08:26;40.10;37.10
12481;DHT22;6305;48.398;11.762;2022-08-01T08:10:53;40.00;36.70
12481;DHT22;6305;48.398;11.762;2022-08-01T08:13:20;39.30;37.10
12481;DHT22;6305;48.398;11.762;2022-08-01T08:15:46;38.40;38.20
12481;DHT22;6305;48.398;11.762;2022-08-01T08:18:14;38.90;38.10
12481;DHT22;6305;48.398;11.762;2022-08-01T08:20:41;39.60;37.60
12481;DHT22;6305;48.398;11.762;2022-08-01T08:23:08;39.50;36.60
12481;DHT22;6305;48.398;11.762;2022-08-01T08:25:48;39.40;36.80
12481;DHT22;6305;48.398;11.762;2022-08-01T08:28:15;38.80;37.40
12481;DHT22;6305;48.398;11.762;2022-08-01T08:30:42;38.80;38.10
12481;DHT22;6305;48.398;11.762;2022-08-01T08:33:08;39.00;38.10
12481;DHT22;6305;48.398;11.762;2022-08-01T08:35:39;39.90;37.60
12481;DHT22;6305;48.398;11.762;2022-08-01T08:38:06;40.30;36.50
12481;DHT22;6305;48.398;11.762;2022-08-01T08:40:35;38.40;36.70
12481;DHT22;6305;48.398;11.762;2022-08-01T08:43:04;38.40;38.70
12481;DHT22;6305;48.398;11.762;2022-08-01T08:45:31;38.90;38.50
12481;DHT22;6305;48.398;11.762;2022-08-01T08:47:58;38.40;38.00
12481;DHT22;6305;48.398;11.762;2022-08-01T08:50:26;38.10;38.60
12481;DHT22;6305;48.398;11.762;2022-08-01T08:52:54;38.30;38.70
12481;DHT22;6305;48.398;11.762;2022-08-01T08:55:22;38.20;38.60
12481;DHT22;6305;48.398;11.762;2022-08-01T08:57:50;38.10;39.10
12481;DHT22;6305;48.398;11.762;2022-08-01T09:00:17;38.20;38.90
12481;DHT22;6305;48.398;11.762;2022-08-01T09:02:45;38.50;38.40
12481;DHT22;6305;48.398;11.762;2022-08-01T09:05:12;38.90;37.90
12481;DHT22;6305;48.398;11.762;2022-08-01T09:07:39;39.40;37.70
12481;DHT22;6305;48.398;11.762;2022-08-01T09:10:08;39.40;36.40
12481;DHT22;6305;48.398;11.762;2022-08-01T09:12:36;38.40;37.20
12481;DHT22;6305;48.398;11.762;2022-08-01T09:15:04;37.10;38.80
12481;DHT22;6305;48.398;11.762;2022-08-01T09:17:39;37.00;39.50
12481;DHT22;6305;48.398;11.762;2022-08-01T09:20:07;37.30;39.70
12481;DHT22;6305;48.398;11.762;2022-08-01T09:22:34;37.60;39.90
12481;DHT22;6305;48.398;11.762;2022-08-01T09:25:03;38.60;38.70
12481;DHT22;6305;48.398;11.762;2022-08-01T09:27:32;38.20;38.10
12481;DHT22;6305;48.398;11.762;2022-08-01T09:30:11;37.90;39.10
12481;DHT22;6305;48.398;11.762;2022-08-01T09:32:53;37.70;38.60
12481;DHT22;6305;48.398;11.762;2022-08-01T09:35:25;37.80;39.10
12481;DHT22;6305;48.398;11.762;2022-08-01T09:38:12;38.40;38.00
12481;DHT22;6305;48.398;11.762;2022-08-01T09:40:50;37.90;38.20
12481;DHT22;6305;48.398;11.762;2022-08-01T09:43:20;37.20;39.70
12481;DHT22;6305;48.398;11.762;2022-08-01T09:45:47;36.70;40.50
12481;DHT22;6305;48.398;11.762;2022-08-01T09:48:14;36.60;40.80
12481;DHT22;6305;48.398;11.762;2022-08-01T09:50:42;36.10;40.60
12481;DHT22;6305;48.398;11.762;2022-08-01T09:53:09;34.50;41.80
12481;DHT22;6305;48.398;11.762;2022-08-01T09:55:36;33.60;44.20
12481;DHT22;6305;48.398;11.762;2022-08-01T09:58:03;33.30;45.10
12481;DHT22;6305;48.398;11.762;2022-08-01T10:00:32;32.80;46.50
12481;DHT22;6305;48.398;11.762;2022-08-01T10:02:59;32.60;46.40
12481;DHT22;6305;48.398;11.762;2022-08-01T10:05:33;32.50;46.10
12481;DHT22;6305;48.398;11.762;2022-08-01T10:08:02;32.30;46.20
12481;DHT22;6305;48.398;11.762;2022-08-01T10:10:29;32.00;46.60
12481;DHT22;6305;48.398;11.762;2022-08-01T10:12:57;32.10;46.20
12481;DHT22;6305;48.398;11.762;2022-08-01T10:15:26;32.30;46.20
12481;DHT22;6305;48.398;11.762;2022-08-01T10:17:56;32.70;45.00
12481;DHT22;6305;48.398;11.762;2022-08-01T10:20:25;33.20;45.00
12481;DHT22;6305;48.398;11.762;2022-08-01T10:22:54;33.30;44.50
12481;DHT22;6305;48.398;11.762;2022-08-01T10:25:21;33.40;44.20
12481;DHT22;6305;48.398;11.762;2022-08-01T10:27:49;32.70;43.90
12481;DHT22;6305;48.398;11.762;2022-08-01T10:30:20;31.90;46.00
12481;DHT22;6305;48.398;11.762;2022-08-01T10:32:47;32.30;45.80
12481;DHT22;6305;48.398;11.762;2022-08-01T10:35:16;32.10;45.30
12481;DHT22;6305;48.398;11.762;2022-08-01T10:37:44;32.40;45.00
12481;DHT22;6305;48.398;11.762;2022-08-01T10:40:11;32.60;45.20
12481;DHT22;6305;48.398;11.762;2022-08-01T10:42:39;33.70;44.20
12481;DHT22;6305;48.398;11.762;2022-08-01T10:45:08;34.90;42.50
12481;DHT22;6305;48.398;11.762;2022-08-01T10:47:42;34.50;42.00
12481;DHT22;6305;48.398;11.762;2022-08-01T10:50:17;35.20;41.80
12481;DHT22;6305;48.398;11.762;2022-08-01T10:53:05;36.20;40.60
12481;DHT22;6305;48.398;11.762;2022-08-01T10:55:45;36.30;39.10
12481;DHT22;6305;48.398;11.762;2022-08-01T10:58:12;37.00;38.90
12481;DHT22;6305;48.398;11.762;2022-08-01T11:00:39;38.00;38.10
12481;DHT22;6305;48.398;11.762;2022-08-01T11:03:05;36.90;37.50
12481;DHT22;6305;48.398;11.762;2022-08-01T11:05:34;36.70;39.40
12481;DHT22;6305;48.398;11.762;2022-08-01T11:08:03;37.70;37.30
12481;DHT22;6305;48.398;11.762;2022-08-01T11:10:37;38.60;36.00
12481;DHT22;6305;48.398;11.762;2022-08-01T11:13:04;38.80;35.80
12481;DHT22;6305;48.398;11.762;2022-08-01T11:15:33;38.90;35.30
12481;DHT22;6305;48.398;11.762;2022-08-01T11:18:02;38.60;35.40
12481;DHT22;6305;48.398;11.762;2022-08-01T11:20:30;38.90;35.10
12481;DHT22;6305;48.398;11.762;2022-08-01T11:23:27;38.90;35.10
12481;DHT22;6305;48.398;11.762;2022-08-01T11:26:11;38.50;34.70
12481;DHT22;6305;48.398;11.762;2022-08-01T11:28:38;37.30;35.40
12481;DHT22;6305;48.398;11.762;2022-08-01T11:31:26;37.50;36.60
12481;DHT22;6305;48.398;11.762;2022-08-01T11:33:54;38.00;35.40
12481;DHT22;6305;48.398;11.762;2022-08-01T11:36:20;38.50;34.20
12481;DHT22;6305;48.398;11.762;2022-08-01T11:41:32;39.30;33.80
12481;DHT22;6305;48.398;11.762;2022-08-01T11:44:03;39.90;32.90
12481;DHT22;6305;48.398;11.762;2022-08-01T11:46:51;39.80;32.50
12481;DHT22;6305;48.398;11.762;2022-08-01T11:52:16;39.60;31.20
12481;DHT22;6305;48.398;11.762;2022-08-01T11:54:48;39.80;31.30
12481;DHT22;6305;48.398;11.762;2022-08-01T11:57:18;37.80;32.90
12481;DHT22;6305;48.398;11.762;2022-08-01T11:59:46;35.50;35.70
12481;DHT22;6305;48.398;11.762;2022-08-01T12:02:22;34.50;38.60
12481;DHT22;6305;48.398;11.762;2022-08-01T12:04:51;34.10;39.30
12481;DHT22;6305;48.398;11.762;2022-08-01T12:07:18;33.40;39.80
12481;DHT22;6305;48.398;11.762;2022-08-01T12:09:47;33.50;40.60
12481;DHT22;6305;48.398;11.762;2022-08-01T12:12:17;35.30;39.80
12481;DHT22;6305;48.398;11.762;2022-08-01T12:14:45;36.60;36.40
12481;DHT22;6305;48.398;11.762;2022-08-01T12:17:18;36.90;35.20
12481;DHT22;6305;48.398;11.762;2022-08-01T12:19:49;37.20;34.70
12481;DHT22;6305;48.398;11.762;2022-08-01T12:22:16;37.60;34.30
12481;DHT22;6305;48.398;11.762;2022-08-01T12:24:42;36.70;35.20
12481;DHT22;6305;48.398;11.762;2022-08-01T12:27:10;36.90;36.20
12481;DHT22;6305;48.398;11.762;2022-08-01T12:29:39;38.00;34.20
12481;DHT22;6305;48.398;11.762;2022-08-01T12:32:25;37.30;35.10
12481;DHT22;6305;48.398;11.762;2022-08-01T12:34:54;37.20;35.80
12481;DHT22;6305;48.398;11.762;2022-08-01T12:37:22;36.60;36.10
12481;DHT22;6305;48.398;11.762;2022-08-01T12:39:48;35.70;37.70
12481;DHT22;6305;48.398;11.762;2022-08-01T12:42:17;34.70;38.20
12481;DHT22;6305;48.398;11.762;2022-08-01T12:44:46;33.60;40.80
12481;DHT22;6305;48.398;11.762;2022-08-01T12:47:15;32.60;41.80
12481;DHT22;6305;48.398;11.762;2022-08-01T12:49:43;32.50;43.50
12481;DHT22;6305;48.398;11.762;2022-08-01T12:52:11;33.20;42.50
12481;DHT22;6305;48.398;11.762;2022-08-01T12:55:10;34.00;41.00
12481;DHT22;6305;48.398;11.762;2022-08-01T12:57:40;33.90;40.90
12481;DHT22;6305;48.398;11.762;2022-08-01T13:00:10;33.80;41.10
12481;DHT22;6305;48.398;11.762;2022-08-01T13:02:37;33.60;40.90
12481;DHT22;6305;48.398;11.762;2022-08-01T13:05:05;33.30;41.70
12481;DHT22;6305;48.398;11.762;2022-08-01T13:07:37;32.80;42.30
12481;DHT22;6305;48.398;11.762;2022-08-01T13:10:04;34.30;41.60
12481;DHT22;6305;48.398;11.762;2022-08-01T13:12:31;36.20;39.40
12481;DHT22;6305;48.398;11.762;2022-08-01T13:14:59;38.10;36.90
12481;DHT22;6305;48.398;11.762;2022-08-01T13:17:30;39.70;33.50
12481;DHT22;6305;48.398;11.762;2022-08-01T13:19:57;40.90;32.00
12481;DHT22;6305;48.398;11.762;2022-08-01T13:22:31;41.40;30.60
12481;DHT22;6305;48.398;11.762;2022-08-01T13:25:09;40.50;30.40
12481;DHT22;6305;48.398;11.762;2022-08-01T13:27:36;38.40;32.20
12481;DHT22;6305;48.398;11.762;2022-08-01T13:30:12;36.80;35.00
12481;DHT22;6305;48.398;11.762;2022-08-01T13:32:39;35.90;36.50
12481;DHT22;6305;48.398;11.762;2022-08-01T13:35:09;34.90;38.40
12481;DHT22;6305;48.398;11.762;2022-08-01T13:37:38;33.50;43.80
12481;DHT22;6305;48.398;11.762;2022-08-01T13:40:06;31.60;49.60
12481;DHT22;6305;48.398;11.762;2022-08-01T13:42:34;28.80;60.30
12481;DHT22;6305;48.398;11.762;2022-08-01T13:45:01;26.40;83.90
12481;DHT22;6305;48.398;11.762;2022-08-01T13:47:29;24.70;97.90
12481;DHT22;6305;48.398;11.762;2022-08-01T13:49:56;23.60;99.90
12481;DHT22;6305;48.398;11.762;2022-08-01T13:52:25;22.90;99.90
12481;DHT22;6305;48.398;11.762;2022-08-01T13:54:52;22.60;99.90
12481;DHT22;6305;48.398;11.762;2022-08-01T13:57:19;22.40;99.90
12481;DHT22;6305;48.398;11.762;2022-08-01T13:59:47;22.40;99.90
12481;DHT22;6305;48.398;11.762;2022-08-01T14:02:14;22.60;99.90
12481;DHT22;6305;48.398;11.762;2022-08-01T14:04:42;22.80;99.90
12481;DHT22;6305;48.398;11.762;2022-08-01T14:07:08;23.00;99.90
12481;DHT22;6305;48.398;11.762;2022-08-01T14:09:35;23.10;99.90
12481;DHT22;6305;48.398;11.762;2022-08-01T14:12:02;23.30;99.90
12481;DHT22;6305;48.398;11.762;2022-08-01T14:14:29;23.30;99.90
12481;DHT22;6305;48.398;11.762;2022-08-01T14:16:56;23.40;99.90
12481;DHT22;6305;48.398;11.762;2022-08-01T14:19:23;23.50;99.90
12481;DHT22;6305;48.398;11.762;2022-08-01T14:21:51;23.60;99.90
12481;DHT22;6305;48.398;11.762;2022-08-01T14:24:18;23.60;99.90
12481;DHT22;6305;48.398;11.762;2022-08-01T14:26:45;23.40;99.90
12481;DHT22;6305;48.398;11.762;2022-08-01T14:29:12;23.20;99.90
12481;DHT22;6305;48.398;11.762;2022-08-01T14:31:38;23.00;99.90
12481;DHT22;6305;48.398;11.762;2022-08-01T14:34:05;22.90;99.90
12481;DHT22;6305;48.398;11.762;2022-08-01T14:36:32;22.80;99.90
12481;DHT22;6305;48.398;11.762;2022-08-01T14:39:00;22.60;99.90
12481;DHT22;6305;48.398;11.762;2022-08-01T14:41:27;22.50;99.90
12481;DHT22;6305;48.398;11.762;2022-08-01T14:43:54;22.30;99.90
12481;DHT22;6305;48.398;11.762;2022-08-01T14:46:20;22.30;99.90
12481;DHT22;6305;48.398;11.762;2022-08-01T14:48:47;22.30;99.90
12481;DHT22;6305;48.398;11.762;2022-08-01T14:51:14;22.60;99.90
12481;DHT22;6305;48.398;11.762;2022-08-01T14:53:40;23.00;99.90
12481;DHT22;6305;48.398;11.762;2022-08-01T14:56:09;23.70;99.90
12481;DHT22;6305;48.398;11.762;2022-08-01T14:58:36;24.50;99.90
12481;DHT22;6305;48.398;11.762;2022-08-01T15:01:03;24.50;99.90
12481;DHT22;6305;48.398;11.762;2022-08-01T15:03:31;24.80;99.90
12481;DHT22;6305;48.398;11.762;2022-08-01T15:05:58;25.10;99.90
12481;DHT22;6305;48.398;11.762;2022-08-01T15:08:24;25.30;99.90
12481;DHT22;6305;48.398;11.762;2022-08-01T15:10:52;25.30;99.90
12481;DHT22;6305;48.398;11.762;2022-08-01T15:13:21;25.30;99.90
12481;DHT22;6305;48.398;11.762;2022-08-01T15:15:47;25.10;99.90
12481;DHT22;6305;48.398;11.762;2022-08-01T15:18:14;24.90;99.90
12481;DHT22;6305;48.398;11.762;2022-08-01T15:20:41;24.80;99.90
12481;DHT22;6305;48.398;11.762;2022-08-01T15:23:07;24.70;99.90
12481;DHT22;6305;48.398;11.762;2022-08-01T15:25:34;24.50;99.90
12481;DHT22;6305;48.398;11.762;2022-08-01T15:28:01;24.50;99.90
12481;DHT22;6305;48.398;11.762;2022-08-01T15:30:29;24.60;99.90
12481;DHT22;6305;48.398;11.762;2022-08-01T15:32:56;24.60;99.90
12481;DHT22;6305;48.398;11.762;2022-08-01T15:35:23;24.80;99.90
12481;DHT22;6305;48.398;11.762;2022-08-01T15:37:49;25.00;99.90
12481;DHT22;6305;48.398;11.762;2022-08-01T15:40:16;25.20;99.90
12481;DHT22;6305;48.398;11.762;2022-08-01T15:42:44;25.30;99.90
12481;DHT22;6305;48.398;11.762;2022-08-01T15:45:11;25.50;99.90